createdAt,value
2022-12-04T00:00:02.729Z,98.43
2022-12-04T00:01:06.924Z,102.93
2022-12-04T00:02:15.730Z,102.50
2022-12-04T00:03:19.526Z,109.88
2022-12-04T00:04:28.852Z,107.30
2022-12-04T00:05:32.357Z,111.93
2022-12-04T00:06:34.913Z,121.72
2022-12-04T00:07:39.659Z,106.57
2022-12-04T00:08:42.267Z,115.38
2022-12-04T00:09:53.136Z,106.25
2022-12-04T00:10:55.865Z,96.93
2022-12-04T00:11:59.400Z,100.07
2022-12-04T00:13:01.893Z,112.28
2022-12-04T00:14:07.441Z,103.43
2022-12-04T00:15:26.160Z,106.90
2022-12-04T00:16:30.782Z,105.82
2022-12-04T00:17:33.334Z,110.18
2022-12-04T00:18:36.927Z,106.03
2022-12-04T00:19:40.346Z,113.78
2022-12-04T00:20:49.731Z,106.05
2022-12-04T00:21:59.726Z,99.30
2022-12-04T00:23:03.508Z,105.28
2022-12-04T00:24:07.483Z,112.90
2022-12-04T00:25:10.475Z,107.57
2022-12-04T00:26:22.783Z,112.10
2022-12-04T00:27:25.326Z,114.15
2022-12-04T00:28:28.858Z,114.07
2022-12-04T00:29:31.348Z,114.68
2022-12-04T00:30:34.783Z,111.72
2022-12-04T00:31:44.743Z,113.68
2022-12-04T00:32:47.260Z,121.63
2022-12-04T00:33:50.711Z,107.18
2022-12-04T00:34:53.346Z,109.10
2022-12-04T00:36:00.010Z,109.20
2022-12-04T00:37:09.744Z,106.00
2022-12-04T00:38:19.714Z,104.28
2022-12-04T00:39:23.215Z,112.18
2022-12-04T00:40:25.704Z,104.80
2022-12-04T00:41:30.317Z,105.25
2022-12-04T00:42:32.825Z,104.80
2022-12-04T00:43:42.760Z,96.13
2022-12-04T00:44:46.195Z,110.78
2022-12-04T00:45:48.735Z,97.50
2022-12-04T00:46:52.177Z,99.57
2022-12-04T00:48:14.692Z,96.90
2022-12-04T00:49:24.748Z,104.45
2022-12-04T00:50:27.270Z,98.90
2022-12-04T00:51:31.184Z,99.60
2022-12-04T00:52:33.736Z,100.70
2022-12-04T00:53:45.727Z,89.20
2022-12-04T00:54:49.232Z,97.07
2022-12-04T00:55:51.811Z,100.70
2022-12-04T00:56:55.228Z,98.95
2022-12-04T00:58:03.733Z,96.45
2022-12-04T00:59:07.231Z,108.45
2022-12-04T01:00:16.795Z,104.68
2022-12-04T01:01:21.623Z,109.70
2022-12-04T01:02:24.321Z,105.25
2022-12-04T01:03:27.854Z,104.32
2022-12-04T01:04:36.733Z,103.88
2022-12-04T01:05:40.808Z,95.68
2022-12-04T01:06:43.382Z,107.07
2022-12-04T01:07:53.786Z,103.93
2022-12-04T01:08:58.150Z,102.68
2022-12-04T01:10:01.951Z,102.20
2022-12-04T01:11:06.608Z,98.93
2022-12-04T01:12:20.778Z,108.38
2022-12-04T01:13:23.984Z,90.93
2022-12-04T01:14:27.458Z,99.82
2022-12-04T01:15:32.930Z,97.38
2022-12-04T01:16:37.834Z,102.60
2022-12-04T01:17:46.731Z,102.97
2022-12-04T01:18:50.522Z,102.38
2022-12-04T01:19:59.735Z,97.50
2022-12-04T01:21:03.229Z,119.05
2022-12-04T01:22:05.698Z,108.70
2022-12-04T01:23:09.141Z,118.72
2022-12-04T01:24:12.959Z,105.35
2022-12-04T01:25:22.738Z,102.18
2022-12-04T01:26:26.191Z,97.38
2022-12-04T01:27:28.683Z,100.03
2022-12-04T01:28:32.230Z,97.40
2022-12-04T01:29:34.884Z,104.68
2022-12-04T01:30:44.741Z,99.65
2022-12-04T01:31:47.382Z,102.10
2022-12-04T01:32:50.916Z,97.45
2022-12-04T01:33:53.430Z,99.70
2022-12-04T01:35:03.749Z,99.43
2022-12-04T01:36:13.749Z,100.63
2022-12-04T01:37:17.193Z,103.90
2022-12-04T01:38:19.685Z,101.75
2022-12-04T01:39:24.496Z,100.68
2022-12-04T01:40:33.760Z,96.82
2022-12-04T01:41:37.225Z,108.75
2022-12-04T01:42:39.734Z,103.40
2022-12-04T01:43:43.268Z,116.32
2022-12-04T01:45:05.765Z,105.00
2022-12-04T01:46:16.842Z,93.97
2022-12-04T01:47:25.729Z,105.60
2022-12-04T01:48:37.216Z,98.85
2022-12-04T01:49:41.897Z,103.80
2022-12-04T01:50:46.109Z,97.28
2022-12-04T01:51:58.743Z,109.80
2022-12-04T01:53:01.444Z,104.88
2022-12-04T01:54:07.878Z,95.95
2022-12-04T01:55:11.771Z,101.20
2022-12-04T01:56:15.891Z,103.53
2022-12-04T01:57:25.755Z,91.10
2022-12-04T01:58:32.891Z,99.65
2022-12-04T01:59:36.832Z,95.57
2022-12-04T02:00:40.281Z,88.90
2022-12-04T02:01:45.233Z,88.97
2022-12-04T02:02:55.909Z,91.95
2022-12-04T02:03:59.040Z,88.55
2022-12-04T02:05:02.741Z,101.18
2022-12-04T02:06:05.641Z,100.28
2022-12-04T02:07:09.202Z,96.20
2022-12-04T02:08:18.772Z,93.85
2022-12-04T02:09:26.755Z,92.20
2022-12-04T02:10:33.643Z,84.93
2022-12-04T02:11:40.242Z,84.80
2022-12-04T02:12:52.749Z,89.57
2022-12-04T02:13:59.090Z,98.32
2022-12-04T02:15:07.066Z,92.60
2022-12-04T02:16:15.520Z,99.97
2022-12-04T02:17:21.821Z,102.68
2022-12-04T02:18:36.129Z,96.00
2022-12-04T02:19:50.208Z,92.13
2022-12-04T02:20:58.181Z,99.03
2022-12-04T02:22:03.707Z,99.88
2022-12-04T02:23:25.454Z,102.95
2022-12-04T02:24:43.955Z,100.97
2022-12-04T02:25:56.934Z,104.22
2022-12-04T02:27:00.525Z,101.05
2022-12-04T02:28:10.344Z,94.03
2022-12-04T02:29:16.235Z,99.28
2022-12-04T02:30:25.792Z,94.68
2022-12-04T02:31:31.930Z,98.15
2022-12-04T02:32:39.222Z,98.85
2022-12-04T02:33:43.721Z,102.80
2022-12-04T02:34:59.768Z,100.05
2022-12-04T02:36:04.473Z,106.13
2022-12-04T02:37:10.833Z,99.15
2022-12-04T02:38:18.041Z,98.60
2022-12-04T02:39:24.120Z,90.63
2022-12-04T02:40:35.756Z,93.13
2022-12-04T02:41:41.729Z,94.47
2022-12-04T02:42:46.314Z,92.85
2022-12-04T02:43:51.919Z,92.85
2022-12-04T02:44:56.902Z,87.22
2022-12-04T02:46:07.785Z,98.50
2022-12-04T02:47:20.008Z,88.68
2022-12-04T02:48:38.726Z,90.10
2022-12-04T02:49:46.503Z,87.35
2022-12-04T02:50:58.720Z,82.93
2022-12-04T02:52:02.471Z,93.05
2022-12-04T02:53:13.775Z,94.75
2022-12-04T02:54:23.743Z,87.80
2022-12-04T02:55:30.024Z,93.50
2022-12-04T02:56:35.539Z,95.95
2022-12-04T02:57:47.731Z,94.15
2022-12-04T02:58:54.788Z,85.88
2022-12-04T02:59:59.362Z,93.40
2022-12-04T03:01:03.705Z,89.97
2022-12-04T03:02:11.176Z,100.60
2022-12-04T03:03:23.752Z,89.85
2022-12-04T03:04:30.680Z,90.22
2022-12-04T03:05:34.959Z,88.78
2022-12-04T03:06:39.484Z,89.93
2022-12-04T03:07:51.820Z,92.15
2022-12-04T03:08:57.006Z,95.82
2022-12-04T03:10:01.266Z,88.80
2022-12-04T03:11:05.186Z,91.78
2022-12-04T03:12:10.614Z,90.63
2022-12-04T03:13:22.790Z,91.53
2022-12-04T03:14:29.967Z,86.13
2022-12-04T03:15:35.526Z,91.03
2022-12-04T03:16:40.171Z,89.95
2022-12-04T03:17:46.970Z,95.22
2022-12-04T03:18:58.763Z,97.45
2022-12-04T03:20:07.048Z,94.03
2022-12-04T03:21:10.944Z,92.93
2022-12-04T03:22:16.882Z,96.97
2022-12-04T03:23:21.814Z,100.22
2022-12-04T03:24:32.743Z,101.45
2022-12-04T03:25:38.588Z,94.43
2022-12-04T03:26:45.223Z,98.03
2022-12-04T03:27:52.005Z,96.15
2022-12-04T03:29:04.815Z,97.03
2022-12-04T03:30:16.732Z,93.05
2022-12-04T03:31:23.727Z,94.50
2022-12-04T03:32:28.463Z,92.00
2022-12-04T03:33:33.408Z,83.97
2022-12-04T03:34:44.802Z,87.68
2022-12-04T03:35:50.665Z,99.40
2022-12-04T03:37:01.770Z,93.00
2022-12-04T03:38:06.554Z,88.38
2022-12-04T03:39:13.203Z,96.30
2022-12-04T03:40:19.290Z,96.35
2022-12-04T03:41:32.754Z,100.00
2022-12-04T03:42:46.738Z,92.78
2022-12-04T03:43:51.904Z,89.15
2022-12-04T03:44:59.114Z,95.55
2022-12-04T03:46:06.480Z,87.65
2022-12-04T03:47:18.801Z,104.18
2022-12-04T03:48:28.962Z,90.00
2022-12-04T03:49:42.379Z,94.35
2022-12-04T03:50:49.282Z,103.60
2022-12-04T03:52:03.778Z,96.15
2022-12-04T03:53:10.449Z,102.93
2022-12-04T03:54:14.977Z,100.10
2022-12-04T03:55:21.238Z,105.78
2022-12-04T03:56:31.796Z,103.18
2022-12-04T03:57:38.460Z,100.38
2022-12-04T03:58:43.727Z,98.55
2022-12-04T03:59:54.057Z,99.78
2022-12-04T04:01:05.801Z,104.20
2022-12-04T04:02:14.818Z,106.80
2022-12-04T04:03:19.371Z,102.90
2022-12-04T04:04:24.865Z,106.72
2022-12-04T04:05:34.773Z,99.07
2022-12-04T04:06:39.697Z,99.88
2022-12-04T04:07:49.865Z,99.35
2022-12-04T04:08:54.857Z,103.45
2022-12-04T04:09:59.199Z,110.82
2022-12-04T04:11:04.828Z,110.45
2022-12-04T04:12:09.908Z,106.35
2022-12-04T04:13:40.764Z,114.47
2022-12-04T04:15:04.522Z,111.95
2022-12-04T04:16:33.735Z,110.65
2022-12-04T04:17:57.737Z,99.28
2022-12-04T04:19:20.065Z,108.90
2022-12-04T04:20:49.772Z,102.30
2022-12-04T04:22:11.994Z,120.40
2022-12-04T04:23:34.373Z,111.03
2022-12-04T04:24:40.888Z,105.68
2022-12-04T04:25:44.715Z,105.15
2022-12-04T04:26:55.789Z,109.28
2022-12-04T04:27:59.300Z,112.28
2022-12-04T04:29:02.987Z,102.25
2022-12-04T04:30:06.261Z,111.13
2022-12-04T04:31:20.837Z,115.18
2022-12-04T04:32:32.787Z,114.65
2022-12-04T04:33:40.523Z,108.28
2022-12-04T04:34:49.162Z,107.05
2022-12-04T04:35:54.819Z,102.50
2022-12-04T04:37:07.772Z,99.40
2022-12-04T04:38:16.695Z,95.63
2022-12-04T04:39:22.580Z,110.78
2022-12-04T04:40:28.921Z,97.45
2022-12-04T04:41:35.978Z,102.38
2022-12-04T04:42:47.755Z,102.65
2022-12-04T04:43:51.879Z,99.90
2022-12-04T04:45:05.757Z,106.60
2022-12-04T04:46:10.335Z,105.53
2022-12-04T04:47:22.782Z,110.65
2022-12-04T04:48:35.027Z,116.30
2022-12-04T04:49:48.135Z,107.30
2022-12-04T04:50:51.095Z,111.38
2022-12-04T04:51:55.535Z,110.63
2022-12-04T04:53:14.783Z,102.45
2022-12-04T04:54:18.688Z,101.05
2022-12-04T04:55:21.952Z,102.75
2022-12-04T04:56:25.725Z,103.88
2022-12-04T04:57:29.385Z,101.55
2022-12-04T04:58:39.784Z,104.20
2022-12-04T04:59:50.774Z,106.00
2022-12-04T05:01:03.811Z,101.13
2022-12-04T05:02:07.301Z,105.32
2022-12-04T05:03:10.628Z,105.75
2022-12-04T05:04:14.124Z,101.75
2022-12-04T05:05:18.364Z,114.55
2022-12-04T05:06:28.766Z,105.53
2022-12-04T05:07:32.249Z,106.80
2022-12-04T05:08:35.096Z,113.75
2022-12-04T05:09:44.990Z,100.70
2022-12-04T05:10:47.498Z,101.18
2022-12-04T05:11:57.750Z,99.35
2022-12-04T05:13:00.271Z,103.95
2022-12-04T05:14:03.708Z,107.53
2022-12-04T05:15:06.515Z,95.63
2022-12-04T05:16:12.246Z,96.53
2022-12-04T05:17:21.759Z,106.80
2022-12-04T05:18:25.228Z,91.22
2022-12-04T05:19:46.278Z,106.15
2022-12-04T05:20:50.171Z,91.85
2022-12-04T05:21:59.741Z,103.80
2022-12-04T05:23:03.174Z,112.80
2022-12-04T05:24:12.774Z,103.90
2022-12-04T05:25:22.774Z,103.00
2022-12-04T05:26:25.697Z,105.95
2022-12-04T05:27:29.666Z,115.35
2022-12-04T05:28:32.405Z,97.10
2022-12-04T05:29:42.764Z,107.90
2022-12-04T05:30:46.277Z,109.13
2022-12-04T05:31:48.879Z,110.45
2022-12-04T05:32:58.835Z,112.95
2022-12-04T05:34:07.764Z,119.63
2022-12-04T05:35:11.792Z,118.05
2022-12-04T05:36:15.764Z,119.20
2022-12-04T05:37:25.862Z,134.50
2022-12-04T05:38:28.473Z,114.88
2022-12-04T05:39:38.768Z,134.75
2022-12-04T05:40:41.315Z,128.25
2022-12-04T05:41:44.747Z,137.88
2022-12-04T05:42:48.152Z,138.98
2022-12-04T05:43:56.815Z,143.70
2022-12-04T05:45:00.762Z,144.57
2022-12-04T05:46:03.812Z,128.85
2022-12-04T05:47:07.435Z,133.90
2022-12-04T05:48:15.974Z,126.72
2022-12-04T05:49:32.804Z,125.75
2022-12-04T05:50:35.332Z,121.30
2022-12-04T05:51:40.039Z,134.70
2022-12-04T05:52:42.516Z,122.70
2022-12-04T05:53:45.995Z,119.72
2022-12-04T05:54:54.777Z,120.82
2022-12-04T05:55:58.516Z,121.15
2022-12-04T05:57:07.766Z,124.28
2022-12-04T05:58:11.325Z,119.28
2022-12-04T05:59:13.999Z,129.38
2022-12-04T06:00:18.173Z,117.15
2022-12-04T06:01:28.763Z,114.85
2022-12-04T06:02:32.523Z,117.75
2022-12-04T06:03:35.145Z,113.75
2022-12-04T06:04:38.891Z,113.65
2022-12-04T06:05:41.402Z,109.03
2022-12-04T06:06:52.792Z,112.70
2022-12-04T06:07:56.213Z,119.40
2022-12-04T06:08:59.860Z,109.45
2022-12-04T06:10:03.327Z,107.45
2022-12-04T06:11:10.537Z,112.63
2022-12-04T06:12:20.774Z,109.30
2022-12-04T06:13:29.761Z,108.70
2022-12-04T06:14:39.278Z,115.78
2022-12-04T06:15:42.435Z,112.90
2022-12-04T06:16:47.439Z,104.03
2022-12-04T06:17:57.014Z,110.65
2022-12-04T06:19:01.273Z,101.53
2022-12-04T06:20:09.531Z,101.20
2022-12-04T06:21:14.772Z,107.32
2022-12-04T06:22:19.567Z,111.20
2022-12-04T06:23:28.772Z,109.35
2022-12-04T06:24:32.492Z,97.60
2022-12-04T06:25:35.436Z,97.50
2022-12-04T06:26:52.003Z,93.38
2022-12-04T06:28:07.786Z,99.20
2022-12-04T06:29:18.781Z,99.10
2022-12-04T06:30:21.293Z,89.65
2022-12-04T06:31:25.056Z,100.47
2022-12-04T06:32:27.690Z,97.15
2022-12-04T06:33:31.296Z,100.07
2022-12-04T06:34:40.839Z,107.95
2022-12-04T06:35:44.245Z,110.00
2022-12-04T06:36:47.754Z,114.05
2022-12-04T06:37:51.651Z,113.93
2022-12-04T06:38:56.940Z,112.75
2022-12-04T06:40:06.145Z,110.35
2022-12-04T06:41:10.354Z,121.65
2022-12-04T06:42:12.861Z,107.65
2022-12-04T06:43:16.271Z,127.65
2022-12-04T06:44:19.749Z,123.70
2022-12-04T06:45:28.786Z,123.72
2022-12-04T06:46:45.077Z,120.20
2022-12-04T06:47:56.005Z,122.43
2022-12-04T06:49:06.153Z,122.95
2022-12-04T06:50:09.141Z,130.38
2022-12-04T06:51:14.110Z,136.88
2022-12-04T06:52:22.818Z,117.57
2022-12-04T06:53:30.399Z,123.70
2022-12-04T06:54:33.831Z,121.60
2022-12-04T06:55:37.417Z,121.38
2022-12-04T06:56:41.120Z,119.15
2022-12-04T06:57:49.751Z,121.00
2022-12-04T06:58:53.947Z,112.05
2022-12-04T06:59:56.805Z,111.95
2022-12-04T07:01:00.608Z,107.10
2022-12-04T07:02:09.816Z,107.57
2022-12-04T07:03:13.267Z,121.97
2022-12-04T07:04:16.673Z,114.05
2022-12-04T07:05:19.168Z,111.13
2022-12-04T07:06:23.732Z,121.28
2022-12-04T07:07:32.877Z,109.40
2022-12-04T07:08:37.595Z,107.20
2022-12-04T07:09:40.093Z,111.75
2022-12-04T07:10:43.831Z,112.32
2022-12-04T07:11:46.623Z,102.68
2022-12-04T07:12:56.816Z,117.88
2022-12-04T07:13:59.356Z,103.00
2022-12-04T07:15:02.796Z,104.82
2022-12-04T07:16:06.865Z,107.60
2022-12-04T07:17:10.351Z,104.68
2022-12-04T07:18:19.770Z,99.18
2022-12-04T07:19:23.452Z,108.15
2022-12-04T07:20:26.076Z,102.72
2022-12-04T07:21:36.779Z,107.40
2022-12-04T07:22:39.301Z,104.95
2022-12-04T07:23:44.230Z,114.47
2022-12-04T07:24:53.766Z,115.05
2022-12-04T07:25:56.367Z,114.95
2022-12-04T07:26:59.762Z,119.45
2022-12-04T07:28:09.827Z,129.13
2022-12-04T07:29:13.528Z,131.13
2022-12-04T07:30:16.426Z,131.65
2022-12-04T07:31:21.132Z,118.78
2022-12-04T07:32:23.769Z,118.55
2022-12-04T07:33:33.790Z,118.00
2022-12-04T07:34:43.790Z,134.43
2022-12-04T07:35:46.283Z,124.05
2022-12-04T07:36:49.731Z,126.30
2022-12-04T07:37:52.242Z,118.28
2022-12-04T07:39:04.811Z,121.50
2022-12-04T07:40:07.833Z,126.65
2022-12-04T07:41:13.319Z,114.10
2022-12-04T07:42:20.996Z,117.18
2022-12-04T07:43:27.665Z,128.23
2022-12-04T07:44:39.750Z,115.65
2022-12-04T07:45:42.281Z,127.50
2022-12-04T07:46:45.716Z,130.70
2022-12-04T07:47:55.030Z,136.68
2022-12-04T07:49:05.095Z,133.88
2022-12-04T07:50:14.815Z,130.60
2022-12-04T07:51:19.368Z,124.85
2022-12-04T07:52:21.954Z,112.57
2022-12-04T07:53:25.372Z,109.07
2022-12-04T07:54:29.362Z,113.43
2022-12-04T07:55:39.787Z,107.47
2022-12-04T07:56:48.783Z,123.57
2022-12-04T07:57:52.229Z,115.43
2022-12-04T07:58:54.727Z,119.28
2022-12-04T07:59:58.477Z,121.03
2022-12-04T08:01:06.525Z,120.00
2022-12-04T08:02:16.750Z,108.93
2022-12-04T08:03:19.322Z,113.15
2022-12-04T08:04:23.071Z,118.00
2022-12-04T08:05:27.186Z,108.85
2022-12-04T08:06:36.885Z,112.72
2022-12-04T08:07:40.294Z,104.82
2022-12-04T08:08:42.779Z,120.45
2022-12-04T08:09:47.463Z,97.82
2022-12-04T08:10:50.123Z,116.85
2022-12-04T08:11:59.767Z,107.30
2022-12-04T08:13:03.135Z,106.05
2022-12-04T08:14:06.339Z,113.40
2022-12-04T08:15:10.195Z,104.95
2022-12-04T08:16:13.195Z,111.07
2022-12-04T08:17:22.792Z,110.80
2022-12-04T08:18:31.784Z,103.88
2022-12-04T08:19:35.162Z,110.93
2022-12-04T08:20:37.605Z,104.30
2022-12-04T08:21:40.980Z,107.65
2022-12-04T08:22:44.330Z,103.18
2022-12-04T08:23:53.784Z,108.40
2022-12-04T08:24:58.462Z,107.38
2022-12-04T08:26:01.000Z,109.80
2022-12-04T08:27:04.388Z,110.03
2022-12-04T08:28:06.908Z,109.05
2022-12-04T08:29:16.817Z,108.70
2022-12-04T08:30:20.710Z,115.70
2022-12-04T08:31:24.211Z,109.63
2022-12-04T08:32:27.724Z,112.35
2022-12-04T08:33:31.115Z,108.43
2022-12-04T08:34:39.744Z,94.25
2022-12-04T08:35:43.096Z,112.15
2022-12-04T08:36:46.495Z,107.30
2022-12-04T08:37:49.083Z,104.57
2022-12-04T08:38:52.939Z,112.65
2022-12-04T08:40:04.783Z,115.95
2022-12-04T08:41:09.083Z,93.32
2022-12-04T08:42:12.688Z,99.15
2022-12-04T08:43:15.148Z,100.53
2022-12-04T08:44:24.751Z,102.50
2022-12-04T08:45:28.124Z,99.05
2022-12-04T08:46:38.822Z,107.20
2022-12-04T08:47:42.266Z,110.72
2022-12-04T08:48:53.091Z,108.22
2022-12-04T08:50:09.879Z,105.93
2022-12-04T08:51:21.781Z,106.75
2022-12-04T08:52:25.121Z,102.80
2022-12-04T08:53:27.817Z,104.13
2022-12-04T08:54:35.909Z,97.75
2022-12-04T08:55:40.107Z,102.15
2022-12-04T08:56:50.766Z,103.95
2022-12-04T08:57:53.258Z,101.38
2022-12-04T08:58:57.691Z,99.65
2022-12-04T09:00:01.826Z,103.10
2022-12-04T09:01:11.936Z,105.68
2022-12-04T09:02:22.745Z,102.88
2022-12-04T09:03:30.691Z,96.35
2022-12-04T09:04:36.274Z,101.45
2022-12-04T09:05:45.845Z,91.00
2022-12-04T09:06:49.253Z,104.57
2022-12-04T09:07:52.666Z,104.38
2022-12-04T09:08:55.632Z,109.97
2022-12-04T09:09:59.452Z,89.10
2022-12-04T09:11:13.772Z,96.53
2022-12-04T09:12:17.158Z,89.40
2022-12-04T09:13:25.763Z,87.65
2022-12-04T09:14:35.777Z,91.85
2022-12-04T09:15:39.662Z,81.32
2022-12-04T09:16:49.754Z,85.90
2022-12-04T09:17:58.767Z,75.68
2022-12-04T09:19:02.336Z,74.70
2022-12-04T09:20:05.427Z,85.78
2022-12-04T09:21:11.451Z,82.63
2022-12-04T09:22:14.861Z,80.05
2022-12-04T09:23:23.790Z,79.60
2022-12-04T09:24:28.196Z,78.53
2022-12-04T09:25:30.645Z,81.53
2022-12-04T09:26:35.283Z,85.13
2022-12-04T09:27:37.752Z,81.70
2022-12-04T09:28:47.767Z,83.65
2022-12-04T09:29:51.188Z,77.40
2022-12-04T09:30:57.952Z,80.97
2022-12-04T09:32:01.372Z,82.53
2022-12-04T09:33:03.842Z,80.57
2022-12-04T09:34:13.764Z,84.22
2022-12-04T09:35:23.756Z,91.78
2022-12-04T09:36:27.109Z,85.28
2022-12-04T09:37:29.591Z,85.28
2022-12-04T09:38:33.265Z,88.88
2022-12-04T09:39:36.650Z,86.55
2022-12-04T09:40:48.878Z,98.50
2022-12-04T09:42:10.786Z,91.85
2022-12-04T09:43:20.311Z,87.95
2022-12-04T09:44:24.409Z,86.97
2022-12-04T09:45:28.526Z,84.95
2022-12-04T09:46:40.862Z,90.18
2022-12-04T09:47:46.168Z,89.05
2022-12-04T09:48:56.892Z,101.57
2022-12-04T09:50:09.036Z,101.07
2022-12-04T09:51:18.832Z,98.60
2022-12-04T09:52:34.233Z,98.63
2022-12-04T09:53:43.863Z,101.60
2022-12-04T09:54:47.676Z,93.28
2022-12-04T09:55:55.424Z,86.88
2022-12-04T09:57:03.241Z,90.40
2022-12-04T09:58:14.776Z,79.07
2022-12-04T09:59:19.412Z,84.72
2022-12-04T10:00:23.247Z,76.05
2022-12-04T10:01:35.756Z,83.80
2022-12-04T10:02:39.034Z,80.88
2022-12-04T10:03:42.718Z,85.55
2022-12-04T10:04:52.781Z,87.03
2022-12-04T10:05:57.305Z,75.50
2022-12-04T10:07:05.060Z,75.07
2022-12-04T10:08:16.858Z,80.47
2022-12-04T10:09:24.011Z,81.07
2022-12-04T10:10:36.784Z,81.15
2022-12-04T10:11:44.300Z,79.70
2022-12-04T10:12:54.190Z,87.53
2022-12-04T10:14:15.469Z,85.65
2022-12-04T10:15:32.813Z,117.85
2022-12-04T10:16:40.067Z,101.35
2022-12-04T10:17:53.344Z,83.88
2022-12-04T10:19:00.352Z,107.68
2022-12-04T10:20:08.050Z,90.90
2022-12-04T10:21:28.780Z,88.72
2022-12-04T10:22:35.111Z,76.38
2022-12-04T10:23:42.476Z,76.13
2022-12-04T10:24:48.665Z,77.82
2022-12-04T10:25:52.245Z,77.63
2022-12-04T10:27:03.763Z,70.75
2022-12-04T10:28:22.804Z,78.53
2022-12-04T10:29:34.804Z,77.45
2022-12-04T10:30:38.155Z,83.07
2022-12-04T10:31:42.253Z,83.60
2022-12-04T10:32:45.775Z,85.28
2022-12-04T10:33:53.709Z,81.57
2022-12-04T10:35:05.117Z,82.35
2022-12-04T10:36:09.382Z,74.57
2022-12-04T10:37:14.327Z,81.07
2022-12-04T10:38:25.735Z,98.97
2022-12-04T10:39:40.822Z,111.70
2022-12-04T10:40:49.025Z,86.57
2022-12-04T10:41:53.855Z,95.47
2022-12-04T10:42:59.373Z,86.78
2022-12-04T10:44:04.201Z,94.45
2022-12-04T10:45:14.832Z,91.72
2022-12-04T10:46:23.345Z,90.45
2022-12-04T10:47:27.207Z,93.18
2022-12-04T10:48:40.035Z,95.88
2022-12-04T10:49:57.104Z,94.35
2022-12-04T10:51:00.776Z,84.57
2022-12-04T10:52:04.245Z,84.53
2022-12-04T10:53:12.207Z,88.53
2022-12-04T10:54:21.518Z,83.20
2022-12-04T10:55:36.815Z,90.70
2022-12-04T10:56:57.952Z,80.18
2022-12-04T10:58:02.832Z,84.50
2022-12-04T10:59:07.783Z,84.13
2022-12-04T11:00:34.818Z,80.70
2022-12-04T11:01:37.531Z,84.88
2022-12-04T11:02:41.322Z,88.53
2022-12-04T11:03:44.904Z,81.88
2022-12-04T11:04:59.829Z,81.88
2022-12-04T11:06:03.136Z,74.68
2022-12-04T11:07:07.774Z,77.95
2022-12-04T11:08:20.456Z,75.90
2022-12-04T11:09:25.534Z,78.82
2022-12-04T11:10:38.832Z,71.45
2022-12-04T11:11:42.226Z,71.13
2022-12-04T11:12:54.307Z,77.47
2022-12-04T11:14:05.834Z,86.22
2022-12-04T11:15:21.986Z,79.88
2022-12-04T11:16:34.375Z,79.30
2022-12-04T11:17:37.838Z,79.78
2022-12-04T11:18:48.067Z,73.72
2022-12-04T11:20:00.428Z,71.35
2022-12-04T11:21:10.838Z,69.72
2022-12-04T11:22:21.977Z,69.88
2022-12-04T11:23:26.338Z,80.25
2022-12-04T11:24:32.144Z,74.53
2022-12-04T11:25:36.416Z,87.97
2022-12-04T11:26:43.797Z,85.47
2022-12-04T11:27:53.861Z,76.57
2022-12-04T11:28:58.709Z,77.43
2022-12-04T11:30:02.404Z,74.32
2022-12-04T11:31:08.192Z,72.47
2022-12-04T11:32:26.811Z,74.47
2022-12-04T11:33:31.509Z,78.18
2022-12-04T11:34:37.283Z,79.30
2022-12-04T11:35:40.461Z,69.57
2022-12-04T11:36:44.356Z,77.85
2022-12-04T11:37:59.775Z,80.68
2022-12-04T11:39:09.421Z,81.32
2022-12-04T11:40:18.146Z,85.45
2022-12-04T11:41:28.828Z,71.30
2022-12-04T11:42:33.350Z,74.57
2022-12-04T11:43:44.918Z,67.90
2022-12-04T11:44:58.778Z,76.18
2022-12-04T11:46:03.427Z,85.00
2022-12-04T11:47:27.350Z,73.72
2022-12-04T11:48:50.786Z,88.38
2022-12-04T11:50:26.887Z,79.60
2022-12-04T11:51:36.200Z,87.63
2022-12-04T11:52:46.288Z,103.70
2022-12-04T11:53:54.240Z,90.03
2022-12-04T11:55:09.777Z,97.65
2022-12-04T11:56:22.003Z,105.82
2022-12-04T11:57:29.006Z,130.40
2022-12-04T11:59:02.364Z,124.30
2022-12-04T12:00:17.829Z,95.25
2022-12-04T12:01:28.763Z,89.65
2022-12-04T12:02:42.423Z,94.47
2022-12-04T12:03:51.007Z,95.03
2022-12-04T12:05:01.196Z,109.93
2022-12-04T12:06:17.817Z,107.10
2022-12-04T12:07:32.640Z,88.50
2022-12-04T12:08:42.072Z,88.32
2022-12-04T12:09:49.787Z,93.28
2022-12-04T12:11:03.971Z,90.07
2022-12-04T12:12:10.945Z,96.93
2022-12-04T12:13:24.867Z,86.32
2022-12-04T12:14:33.480Z,81.10
2022-12-04T12:15:42.825Z,94.00
2022-12-04T12:16:51.587Z,87.85
2022-12-04T12:18:03.088Z,89.10
2022-12-04T12:19:27.811Z,79.10
2022-12-04T12:20:33.838Z,89.15
2022-12-04T12:21:40.452Z,97.85
2022-12-04T12:23:10.804Z,87.20
2022-12-04T12:24:25.262Z,85.72
2022-12-04T12:25:36.823Z,88.40
2022-12-04T12:26:47.401Z,87.30
2022-12-04T12:28:18.250Z,84.38
2022-12-04T12:29:33.807Z,78.97
2022-12-04T12:30:42.456Z,84.53
2022-12-04T12:31:53.383Z,74.65
2022-12-04T12:33:01.644Z,67.22
2022-12-04T12:34:06.484Z,78.13
2022-12-04T12:35:26.820Z,77.25
2022-12-04T12:36:33.101Z,88.15
2022-12-04T12:37:39.089Z,82.50
2022-12-04T12:38:45.202Z,81.30
2022-12-04T12:39:49.685Z,75.72
2022-12-04T12:41:01.796Z,76.80
2022-12-04T12:42:05.330Z,89.15
2022-12-04T12:43:12.304Z,76.22
2022-12-04T12:44:18.910Z,79.90
2022-12-04T12:45:25.650Z,75.72
2022-12-04T12:46:37.820Z,77.03
2022-12-04T12:47:44.352Z,88.65
2022-12-04T12:49:10.759Z,83.85
2022-12-04T12:50:22.771Z,78.72
2022-12-04T12:51:30.844Z,65.82
2022-12-04T12:52:49.867Z,76.22
2022-12-04T12:53:55.314Z,70.40
2022-12-04T12:55:02.526Z,67.13
2022-12-04T12:56:08.889Z,73.95
2022-12-04T12:57:18.459Z,67.90
2022-12-04T12:58:29.880Z,71.93
2022-12-04T12:59:34.315Z,75.38
2022-12-04T13:00:40.177Z,71.72
2022-12-04T13:01:46.893Z,77.03
2022-12-04T13:02:53.434Z,71.38
2022-12-04T13:04:05.828Z,66.45
2022-12-04T13:05:10.734Z,78.70
2022-12-04T13:06:21.819Z,84.72
2022-12-04T13:07:28.224Z,92.82
2022-12-04T13:08:35.957Z,88.85
2022-12-04T13:09:41.379Z,83.10
2022-12-04T13:10:52.811Z,89.85
2022-12-04T13:11:59.082Z,83.22
2022-12-04T13:13:03.446Z,86.35
2022-12-04T13:14:13.869Z,79.30
2022-12-04T13:15:17.894Z,78.88
2022-12-04T13:16:22.534Z,83.32
2022-12-04T13:17:30.754Z,87.75
2022-12-04T13:18:36.147Z,90.63
2022-12-04T13:19:50.837Z,80.97
2022-12-04T13:20:55.793Z,77.65
2022-12-04T13:22:02.217Z,79.45
2022-12-04T13:23:15.170Z,79.78
2022-12-04T13:24:32.556Z,72.43
2022-12-04T13:25:48.870Z,77.15
2022-12-04T13:26:53.393Z,79.65
2022-12-04T13:28:02.571Z,79.78
2022-12-04T13:29:11.004Z,76.57
2022-12-04T13:30:16.355Z,74.05
2022-12-04T13:31:34.341Z,75.55
2022-12-04T13:32:43.713Z,71.65
2022-12-04T13:34:05.958Z,72.13
2022-12-04T13:35:16.093Z,67.65
2022-12-04T13:36:30.786Z,73.18
2022-12-04T13:37:49.836Z,66.93
2022-12-04T13:38:59.497Z,73.82
2022-12-04T13:40:23.064Z,74.28
2022-12-04T13:41:33.833Z,75.00
2022-12-04T13:42:36.495Z,74.13
2022-12-04T13:43:47.416Z,73.63
2022-12-04T13:44:54.808Z,70.55
2022-12-04T13:46:06.952Z,78.57
2022-12-04T13:47:14.335Z,65.97
2022-12-04T13:48:27.128Z,65.88
2022-12-04T13:49:52.805Z,73.57
2022-12-04T13:51:10.884Z,69.75
2022-12-04T13:52:23.826Z,73.05
2022-12-04T13:53:32.960Z,68.72
2022-12-04T13:54:37.537Z,71.30
2022-12-04T13:55:40.764Z,65.50
2022-12-04T13:56:51.865Z,70.40
2022-12-04T13:57:56.170Z,70.38
2022-12-04T13:59:03.828Z,73.78
2022-12-04T14:00:08.209Z,74.72
2022-12-04T14:01:25.970Z,76.03
2022-12-04T14:02:38.878Z,72.05
2022-12-04T14:03:54.859Z,71.25
2022-12-04T14:04:59.904Z,76.40
2022-12-04T14:06:06.287Z,62.50
2022-12-04T14:07:08.979Z,69.78
2022-12-04T14:08:24.856Z,77.20
2022-12-04T14:09:35.870Z,74.28
2022-12-04T14:10:40.699Z,66.63
2022-12-04T14:11:45.403Z,75.95
2022-12-04T14:12:53.842Z,73.00
2022-12-04T14:14:08.120Z,71.65
2022-12-04T14:15:22.424Z,70.05
2022-12-04T14:16:25.945Z,70.10
2022-12-04T14:17:31.019Z,75.78
2022-12-04T14:18:33.613Z,73.88
2022-12-04T14:19:44.834Z,77.05